Time;durP1;ratioP1;P1;durP2;ratioP2;P2;SDS_P1;SDS_P2;PMS_P1;PMS_P2;Temp;Humidity;BMP_temperature;BMP_pressure;BME280_temperature;BME280_humidity;BME280_pressure;Samples;Min_cycle;Max_cycle;Signal;HPM_P1;HPM_P2
2022/09/30 00:01:35;;;;;;;5.32;0.90;;;;;;;;;;5063381;28;20042;-64
2022/09/30 00:04:02;;;;;;;4.43;1.10;;;;;;;;;;5064032;28;20077;-64
2022/09/30 00:06:29;;;;;;;5.18;0.90;;;;;;;;;;5058830;28;20032;-64
2022/09/30 00:08:56;;;;;;;6.38;1.20;;;;;;;;;;5079516;28;20534;-64
2022/09/30 00:11:25;;;;;;;6.45;1.20;;;;;;;;;;5073393;28;20097;-63
2022/09/30 00:13:51;;;;;;;4.40;0.88;;;;;;;;;;5062387;28;20276;-63
2022/09/30 00:16:19;;;;;;;4.80;1.00;;;;;;;;;;5075370;28;20404;-63
2022/09/30 00:18:46;;;;;;;4.25;0.90;;;;;;;;;;5075334;28;20032;-64
2022/09/30 00:21:14;;;;;;;4.50;1.00;;;;;;;;;;5064587;28;20274;-64
2022/09/30 00:23:40;;;;;;;7.05;1.50;;;;;;;;;;5070615;28;20051;-64
2022/09/30 00:26:10;;;;;;;4.70;1.08;;;;;;;;;;5068675;28;20042;-64
2022/09/30 00:28:37;;;;;;;4.93;1.30;;;;;;;;;;5059640;28;20035;-64
2022/09/30 00:31:06;;;;;;;6.13;1.13;;;;;;;;;;5072100;28;20054;-64
2022/09/30 00:33:32;;;;;;;8.25;1.40;;;;;;;;;;5061094;28;20021;-64
2022/09/30 00:35:58;;;;;;;3.67;1.10;;;;;;;;;;5045972;28;20091;-66
2022/09/30 00:38:25;;;;;;;5.65;1.05;;;;;;;;;;5064683;28;20114;-64
2022/09/30 00:40:51;;;;;;;7.63;1.02;;;;;;;;;;5052514;28;20032;-64
2022/09/30 00:43:19;;;;;;;3.20;1.00;;;;;;;;;;5050899;28;20304;-64
2022/09/30 00:45:53;;;;;;;4.43;0.98;;;;;;;;;;5068986;28;20111;-64
2022/09/30 00:48:31;;;;;;;2.95;0.82;;;;;;;;;;5059452;28;20118;-64
2022/09/30 00:50:58;;;;;;;4.35;1.10;;;;;;;;;;5073166;28;20036;-64
2022/09/30 00:53:24;;;;;;;4.38;0.90;;;;;;;;;;5060717;28;20481;-64
2022/09/30 00:55:50;;;;;;;5.78;1.20;;;;;;;;;;5065189;28;20032;-64
2022/09/30 00:58:20;;;;;;;6.45;1.35;;;;;;;;;;5059633;28;20032;-64
2022/09/30 01:00:46;;;;;;;5.85;1.20;;;;;;;;;;5062330;28;20490;-64
2022/09/30 01:03:12;;;;;;;5.25;1.20;;;;;;;;;;5075718;28;20052;-64
2022/09/30 01:05:39;;;;;;;5.47;1.00;;;;;;;;;;5063796;28;20374;-64
2022/09/30 01:08:06;;;;;;;4.25;0.90;;;;;;;;;;5065424;28;20028;-63
2022/09/30 01:10:32;;;;;;;4.72;1.05;;;;;;;;;;5068655;28;20032;-64
2022/09/30 01:12:58;;;;;;;4.10;0.90;;;;;;;;;;5060801;28;20171;-64
2022/09/30 01:15:32;;;;;;;4.15;0.93;;;;;;;;;;5060319;28;20035;-64
2022/09/30 01:18:18;;;;;;;3.90;0.88;;;;;;;;;;5067724;28;20050;-64
2022/09/30 01:21:16;;;;;;;5.82;1.20;;;;;;;;;;5070673;27;20505;-64
2022/09/30 01:23:56;;;;;;;5.00;1.00;;;;;;;;;;5010996;28;20079;-64
2022/09/30 01:26:22;;;;;;;6.63;1.10;;;;;;;;;;5010145;28;20411;-63
2022/09/30 01:28:54;;;;;;;3.80;1.10;;;;;;;;;;5008442;28;20034;-64
2022/09/30 01:31:26;;;;;;;3.55;0.80;;;;;;;;;;5009199;28;20021;-64
2022/09/30 01:33:58;;;;;;;4.28;0.90;;;;;;;;;;5019138;28;20036;-64
2022/09/30 01:36:43;;;;;;;5.15;1.00;;;;;;;;;;5012962;28;20584;-64
2022/09/30 01:39:12;;;;;;;5.57;1.00;;;;;;;;;;5018516;28;20041;-63
2022/09/30 01:41:44;;;;;;;3.92;0.90;;;;;;;;;;5005683;28;20625;-64
2022/09/30 01:44:16;;;;;;;4.80;0.80;;;;;;;;;;4988994;28;20041;-64
2022/09/30 01:46:48;;;;;;;3.88;0.80;;;;;;;;;;4997442;28;20038;-64
2022/09/30 01:49:30;;;;;;;3.33;0.90;;;;;;;;;;5007326;28;20044;-64
2022/09/30 01:52:03;;;;;;;4.53;0.98;;;;;;;;;;5002917;28;20036;-64
2022/09/30 01:54:32;;;;;;;6.45;1.30;;;;;;;;;;5015622;28;20298;-63
2022/09/30 01:57:03;;;;;;;5.05;0.90;;;;;;;;;;5018315;28;20044;-64
2022/09/30 01:59:29;;;;;;;6.00;1.27;;;;;;;;;;5049472;28;20228;-64
2022/09/30 02:02:01;;;;;;;7.63;1.00;;;;;;;;;;5072045;28;20039;-63
2022/09/30 02:04:50;;;;;;;7.85;2.40;;;;;;;;;;5067206;28;20135;-63
2022/09/30 02:07:21;;;;;;;11.13;1.75;;;;;;;;;;5055308;28;20043;-64
2022/09/30 02:10:02;;;;;;;9.07;1.55;;;;;;;;;;5067083;28;20111;-63
2022/09/30 02:12:31;;;;;;;9.88;1.77;;;;;;;;;;5049747;28;20107;-65
2022/09/30 02:15:01;;;;;;;11.30;1.98;;;;;;;;;;5068746;28;20307;-65
2022/09/30 02:17:41;;;;;;;11.65;1.50;;;;;;;;;;5066114;27;20136;-65
2022/09/30 02:20:13;;;;;;;11.82;1.70;;;;;;;;;;5085054;27;20461;-64
2022/09/30 02:22:43;;;;;;;12.18;1.73;;;;;;;;;;5054276;28;20034;-64
2022/09/30 02:25:11;;;;;;;13.73;1.85;;;;;;;;;;5068027;28;20049;-64
2022/09/30 02:27:41;;;;;;;13.48;2.00;;;;;;;;;;5058268;28;20034;-64
2022/09/30 02:30:09;;;;;;;12.30;1.65;;;;;;;;;;5078377;27;20031;-64
2022/09/30 02:32:37;;;;;;;12.63;1.60;;;;;;;;;;5056132;28;20531;-64
2022/09/30 02:35:24;;;;;;;11.75;1.88;;;;;;;;;;5068032;28;20021;-66
2022/09/30 02:37:53;;;;;;;12.82;1.63;;;;;;;;;;5057408;28;20134;-64
2022/09/30 02:40:23;;;;;;;10.75;1.50;;;;;;;;;;5066752;28;20024;-64
2022/09/30 02:42:49;;;;;;;8.68;1.27;;;;;;;;;;5063530;28;20352;-65
2022/09/30 02:45:17;;;;;;;8.10;1.13;;;;;;;;;;5071324;28;20048;-64
2022/09/30 02:48:01;;;;;;;9.52;1.30;;;;;;;;;;5068630;28;20035;-64
2022/09/30 02:50:39;;;;;;;10.63;1.40;;;;;;;;;;5065346;27;20040;-64
2022/09/30 02:53:21;;;;;;;11.10;1.67;;;;;;;;;;5067563;28;20537;-64
2022/09/30 02:55:48;;;;;;;14.32;1.75;;;;;;;;;;5075555;28;20039;-64
2022/09/30 02:58:18;;;;;;;11.40;1.58;;;;;;;;;;5062789;28;20498;-64
2022/09/30 03:00:44;;;;;;;10.57;1.40;;;;;;;;;;5063019;28;20495;-64
2022/09/30 03:03:10;;;;;;;;;;;;;;;;;;5062761;28;20493;-64
2022/09/30 03:05:36;;;;;;;13.07;1.55;;;;;;;;;;5050822;28;19920;-64
2022/09/30 03:08:02;;;;;;;9.13;1.35;;;;;;;;;;5079131;28;20039;-64
2022/09/30 03:10:28;;;;;;;;;;;;;;;;;;5065777;28;20059;-65
2022/09/30 03:12:54;;;;;;;8.43;1.38;;;;;;;;;;5075650;28;20023;-64
2022/09/30 03:15:46;;;;;;;10.48;1.48;;;;;;;;;;5064183;28;20117;-64
2022/09/30 03:18:22;;;;;;;7.68;1.17;;;;;;;;;;5013379;28;20132;-64
2022/09/30 03:21:04;;;;;;;9.27;1.33;;;;;;;;;;5018377;28;20226;-64
2022/09/30 03:23:48;;;;;;;8.93;1.42;;;;;;;;;;5011702;28;20072;-64
2022/09/30 03:26:20;;;;;;;9.98;1.35;;;;;;;;;;5020412;28;20487;-64
2022/09/30 03:28:49;;;;;;;8.75;1.30;;;;;;;;;;5020297;28;20152;-64
2022/09/30 03:31:27;;;;;;;9.52;1.42;;;;;;;;;;5020125;28;20037;-64
2022/09/30 03:33:56;;;;;;;10.48;1.70;;;;;;;;;;5017522;28;20028;-64
2022/09/30 03:36:28;;;;;;;9.88;1.50;;;;;;;;;;5017389;28;20037;-64
2022/09/30 03:38:57;;;;;;;9.40;1.38;;;;;;;;;;5022306;28;20660;-64
2022/09/30 03:41:32;;;;;;;10.85;1.80;;;;;;;;;;5016308;28;20103;-64
2022/09/30 03:44:01;;;;;;;9.43;1.40;;;;;;;;;;5020099;28;20230;-64
2022/09/30 03:46:36;;;;;;;9.07;1.33;;;;;;;;;;5014602;28;20044;-65
2022/09/30 03:49:05;;;;;;;10.30;1.42;;;;;;;;;;5019704;28;20043;-64
2022/09/30 03:51:31;;;;;;;10.40;1.70;;;;;;;;;;5017088;28;20741;-64
2022/09/30 03:53:58;;;;;;;10.52;1.50;;;;;;;;;;5020138;28;20086;-66
2022/09/30 03:56:30;;;;;;;6.95;1.00;;;;;;;;;;5049275;28;20100;-63
2022/09/30 03:58:58;;;;;;;10.95;1.60;;;;;;;;;;5062528;28;20043;-64
2022/09/30 04:01:24;;;;;;;8.93;1.35;;;;;;;;;;5057634;28;20477;-64
2022/09/30 04:03:53;;;;;;;;;;;;;;;;;;5064233;28;20093;-64
2022/09/30 04:06:28;;;;;;;11.38;1.70;;;;;;;;;;5058978;28;20488;-64
2022/09/30 04:08:54;;;;;;;9.25;1.42;;;;;;;;;;5061310;28;20138;-64
2022/09/30 04:11:20;;;;;;;;;;;;;;;;;;5059525;28;20024;-64
2022/09/30 04:13:46;;;;;;;7.72;1.50;;;;;;;;;;5062647;28;19915;-64
2022/09/30 04:16:12;;;;;;;8.95;1.50;;;;;;;;;;5063144;28;20032;-63
2022/09/30 04:18:38;;;;;;;;;;;;;;;;;;5057914;28;20039;-63
2022/09/30 04:21:05;;;;;;;9.45;1.60;;;;;;;;;;5058762;28;19965;-63
2022/09/30 04:23:33;;;;;;;9.55;1.38;;;;;;;;;;5060119;28;20027;-63
2022/09/30 04:26:01;;;;;;;10.32;1.45;;;;;;;;;;5042248;28;20623;-63
2022/09/30 04:28:27;;;;;;;8.52;1.50;;;;;;;;;;5058033;28;20032;-64
2022/09/30 04:30:53;;;;;;;7.80;1.23;;;;;;;;;;5043738;28;20035;-63
2022/09/30 04:33:19;;;;;;;7.55;1.38;;;;;;;;;;5064837;28;20059;-63
2022/09/30 04:35:46;;;;;;;11.75;1.75;;;;;;;;;;5069477;28;20444;-63
2022/09/30 04:38:12;;;;;;;10.05;1.13;;;;;;;;;;5069765;28;20039;-63
2022/09/30 04:40:38;;;;;;;6.63;1.10;;;;;;;;;;5065993;28;20032;-63
2022/09/30 04:43:05;;;;;;;8.20;1.02;;;;;;;;;;5067329;28;20036;-65
2022/09/30 04:45:31;;;;;;;7.07;1.45;;;;;;;;;;5061991;28;20436;-63
2022/09/30 04:47:57;;;;;;;;;;;;;;;;;;5073643;28;20512;-63
2022/09/30 04:50:23;;;;;;;8.05;1.30;;;;;;;;;;5069358;28;20018;-63
2022/09/30 04:52:49;;;;;;;10.63;1.50;;;;;;;;;;5052784;28;20420;-63
2022/09/30 04:55:16;;;;;;;11.05;1.60;;;;;;;;;;5061785;28;20509;-64
2022/09/30 04:57:45;;;;;;;9.73;1.58;;;;;;;;;;5060140;28;20484;-63
2022/09/30 05:00:11;;;;;;;6.95;1.27;;;;;;;;;;5065495;28;20020;-65
2022/09/30 05:02:37;;;;;;;9.48;1.48;;;;;;;;;;5061810;28;20160;-65
2022/09/30 05:05:04;;;;;;;11.68;1.60;;;;;;;;;;5048722;28;20554;-65
2022/09/30 05:07:31;;;;;;;6.78;1.30;;;;;;;;;;5065965;28;20408;-65
2022/09/30 05:09:57;;;;;;;9.27;1.45;;;;;;;;;;5063432;28;20040;-64
2022/09/30 05:12:25;;;;;;;6.28;1.27;;;;;;;;;;5064843;28;20032;-63
2022/09/30 05:14:51;;;;;;;9.30;1.40;;;;;;;;;;5058402;28;20106;-65
2022/09/30 05:17:17;;;;;;;8.40;1.25;;;;;;;;;;5056765;28;20036;-65
2022/09/30 05:19:43;;;;;;;8.73;1.40;;;;;;;;;;5056790;28;20539;-63
2022/09/30 05:22:09;;;;;;;6.95;1.30;;;;;;;;;;5044274;28;20039;-63
2022/09/30 05:24:35;;;;;;;7.25;1.30;;;;;;;;;;5060790;28;20600;-64
2022/09/30 05:27:01;;;;;;;11.82;1.30;;;;;;;;;;5067186;28;20213;-64
2022/09/30 05:29:27;;;;;;;;;;;;;;;;;;5071059;28;20035;-64
2022/09/30 05:31:53;;;;;;;9.00;1.20;;;;;;;;;;5055671;28;19911;-64
2022/09/30 05:34:20;;;;;;;6.13;1.30;;;;;;;;;;5059577;28;20085;-63
2022/09/30 05:36:46;;;;;;;11.23;1.73;;;;;;;;;;5080578;27;20027;-64
2022/09/30 05:39:12;;;;;;;;;;;;;;;;;;5078233;28;20063;-64
2022/09/30 05:41:38;;;;;;;8.13;1.42;;;;;;;;;;5074978;28;20022;-64
2022/09/30 05:44:06;;;;;;;8.77;1.50;;;;;;;;;;5078778;28;20469;-64
2022/09/30 05:46:32;;;;;;;7.07;1.30;;;;;;;;;;5073925;28;20020;-65
2022/09/30 05:48:58;;;;;;;9.55;1.60;;;;;;;;;;5079665;28;20039;-63
2022/09/30 05:51:24;;;;;;;10.70;1.77;;;;;;;;;;5075316;28;20027;-63
2022/09/30 05:53:50;;;;;;;7.47;1.40;;;;;;;;;;5078016;28;20084;-64
2022/09/30 05:56:17;;;;;;;8.45;1.50;;;;;;;;;;5075302;28;20366;-64
2022/09/30 05:58:43;;;;;;;8.45;1.50;;;;;;;;;;5075907;28;20607;-64
2022/09/30 06:01:10;;;;;;;9.05;1.48;;;;;;;;;;5079356;28;20155;-64
2022/09/30 06:03:37;;;;;;;7.95;1.55;;;;;;;;;;5076367;28;20039;-64
2022/09/30 06:06:04;;;;;;;9.07;2.10;;;;;;;;;;5056452;28;20046;-63
2022/09/30 06:08:30;;;;;;;7.30;1.67;;;;;;;;;;5073772;28;20080;-63
2022/09/30 06:10:58;;;;;;;10.93;2.15;;;;;;;;;;5070957;28;20035;-64
2022/09/30 06:13:24;;;;;;;9.93;2.28;;;;;;;;;;5074574;28;20980;-64
2022/09/30 06:15:50;;;;;;;;;;;;;;;;;;5075373;28;20032;-64
2022/09/30 06:18:16;;;;;;;8.75;1.92;;;;;;;;;;5074362;28;19912;-63
2022/09/30 06:20:42;;;;;;;6.35;1.55;;;;;;;;;;5074079;28;20035;-64
2022/09/30 06:23:08;;;;;;;8.45;1.42;;;;;;;;;;5078662;28;20063;-64
2022/09/30 06:25:35;;;;;;;4.75;1.00;;;;;;;;;;5071559;28;20160;-64
2022/09/30 06:28:01;;;;;;;5.32;1.10;;;;;;;;;;5054230;28;20347;-64
2022/09/30 06:30:27;;;;;;;4.40;1.17;;;;;;;;;;5064782;28;20390;-64
2022/09/30 06:32:56;;;;;;;4.78;0.90;;;;;;;;;;5072122;28;20031;-65
2022/09/30 06:35:23;;;;;;;8.57;1.10;;;;;;;;;;5066204;28;20119;-64
2022/09/30 06:37:53;;;;;;;7.47;1.42;;;;;;;;;;5061823;28;20040;-64
2022/09/30 06:40:23;;;;;;;4.82;1.10;;;;;;;;;;5059437;28;20419;-64
2022/09/30 06:42:49;;;;;;;5.75;0.93;;;;;;;;;;5068795;28;20037;-64
2022/09/30 06:45:17;;;;;;;3.60;0.80;;;;;;;;;;5064931;28;20145;-64
2022/09/30 06:47:45;;;;;;;5.30;0.80;;;;;;;;;;5083079;27;20051;-64
2022/09/30 06:50:11;;;;;;;3.13;0.60;;;;;;;;;;5067044;28;20028;-63
2022/09/30 06:52:37;;;;;;;10.27;0.70;;;;;;;;;;5064408;28;20433;-64
2022/09/30 06:55:03;;;;;;;3.50;0.90;;;;;;;;;;5072101;28;20256;-64
2022/09/30 06:57:29;;;;;;;;;;;;;;;;;;5044181;28;20059;-63
2022/09/30 06:59:56;;;;;;;5.65;0.82;;;;;;;;;;5064079;28;19922;-64
2022/09/30 07:02:22;;;;;;;4.65;0.77;;;;;;;;;;5064029;28;20032;-63
2022/09/30 07:04:49;;;;;;;;;;;;;;;;;;5070070;28;20028;-64
2022/09/30 07:07:16;;;;;;;6.40;1.17;;;;;;;;;;5065343;28;19920;-64
2022/09/30 07:09:42;;;;;;;6.85;1.13;;;;;;;;;;5066737;28;20055;-64
2022/09/30 07:12:08;;;;;;;6.13;1.20;;;;;;;;;;5073473;28;20676;-64
2022/09/30 07:14:35;;;;;;;;;;;;;;;;;;5065796;28;20081;-65
2022/09/30 07:17:03;;;;;;;;;;;;;;;;;;5047232;28;19912;-64
2022/09/30 07:19:29;;;;;;;5.93;1.00;;;;;;;;;;5079051;28;19912;-64
2022/09/30 07:21:55;;;;;;;;;;;;;;;;;;5064147;28;20042;-63
2022/09/30 07:24:21;;;;;;;4.72;0.90;;;;;;;;;;5076254;28;19915;-64
2022/09/30 07:26:47;;;;;;;5.78;0.98;;;;;;;;;;5060526;28;20101;-63
2022/09/30 07:29:14;;;;;;;5.55;1.10;;;;;;;;;;5042523;28;20103;-63
2022/09/30 07:31:40;;;;;;;8.25;1.23;;;;;;;;;;5059630;28;20028;-64
2022/09/30 07:34:06;;;;;;;;;;;;;;;;;;5052715;28;20365;-65
2022/09/30 07:36:34;;;;;;;17.30;2.38;;;;;;;;;;5060215;28;19918;-64
2022/09/30 07:39:04;;;;;;;11.82;2.10;;;;;;;;;;5067878;28;20317;-63
2022/09/30 07:41:30;;;;;;;9.38;1.80;;;;;;;;;;5048724;28;20126;-65
2022/09/30 07:43:58;;;;;;;7.22;1.52;;;;;;;;;;5034923;28;20257;-64
2022/09/30 07:46:28;;;;;;;7.05;1.80;;;;;;;;;;5054014;28;20102;-64
2022/09/30 07:48:57;;;;;;;7.18;1.60;;;;;;;;;;5045996;28;20029;-64
2022/09/30 07:51:29;;;;;;;7.53;1.40;;;;;;;;;;5046703;28;20836;-63
2022/09/30 07:53:58;;;;;;;7.32;1.58;;;;;;;;;;5062990;28;20085;-64
2022/09/30 07:56:24;;;;;;;6.85;1.90;;;;;;;;;;5051045;28;20077;-64
2022/09/30 07:58:54;;;;;;;6.63;1.70;;;;;;;;;;5044550;28;20028;-64
2022/09/30 08:01:21;;;;;;;9.38;1.63;;;;;;;;;;5047132;28;20038;-63
2022/09/30 08:03:47;;;;;;;7.45;1.70;;;;;;;;;;5062997;28;20289;-64
2022/09/30 08:06:13;;;;;;;;;;;;;;;;;;5061494;28;20069;-64
2022/09/30 08:08:40;;;;;;;7.97;1.75;;;;;;;;;;5058043;28;20333;-65
2022/09/30 08:11:06;;;;;;;6.82;1.70;;;;;;;;;;5060940;28;20028;-64
2022/09/30 08:13:33;;;;;;;7.88;1.65;;;;;;;;;;5058884;28;20055;-64
2022/09/30 08:15:59;;;;;;;4.90;1.40;;;;;;;;;;5061437;28;20539;-64
2022/09/30 08:18:26;;;;;;;5.97;1.30;;;;;;;;;;5057260;28;20032;-64
2022/09/30 08:20:52;;;;;;;6.05;1.10;;;;;;;;;;5042738;28;20394;-64
2022/09/30 08:23:18;;;;;;;;;;;;;;;;;;5058204;28;20036;-63
2022/09/30 08:25:44;;;;;;;6.55;1.33;;;;;;;;;;5043547;28;19927;-64
2022/09/30 08:28:10;;;;;;;;;;;;;;;;;;5063633;28;20036;-64
2022/09/30 08:30:37;;;;;;;4.82;1.20;;;;;;;;;;5056159;28;20588;-64
2022/09/30 08:33:03;;;;;;;7.90;1.38;;;;;;;;;;5062228;28;20032;-64
2022/09/30 08:35:29;;;;;;;;;;;;;;;;;;5058549;28;20041;-64
2022/09/30 08:37:55;;;;;;;6.10;0.90;;;;;;;;;;5061732;28;19976;-64
2022/09/30 08:40:27;;;;;;;5.90;1.10;;;;;;;;;;5056956;28;20081;-64
2022/09/30 08:43:02;;;;;;;5.28;1.00;;;;;;;;;;5059319;28;20299;-64
2022/09/30 08:45:33;;;;;;;5.85;1.00;;;;;;;;;;5058400;28;20573;-64
2022/09/30 08:48:08;;;;;;;5.88;1.27;;;;;;;;;;5062450;28;20033;-64
2022/09/30 08:50:50;;;;;;;7.38;1.30;;;;;;;;;;5054931;28;20016;-64
2022/09/30 08:53:29;;;;;;;7.25;1.20;;;;;;;;;;5055144;28;20043;-64
2022/09/30 08:55:56;;;;;;;7.30;1.25;;;;;;;;;;5037458;28;20074;-64
2022/09/30 08:58:41;;;;;;;8.00;1.42;;;;;;;;;;5059726;28;20581;-65
2022/09/30 09:01:16;;;;;;;7.10;1.30;;;;;;;;;;5061075;28;20031;-64
2022/09/30 09:03:44;;;;;;;9.48;1.02;;;;;;;;;;5058621;28;20481;-64
2022/09/30 09:06:26;;;;;;;8.93;1.13;;;;;;;;;;5062264;28;21478;-65
2022/09/30 09:08:52;;;;;;;4.70;0.90;;;;;;;;;;5058633;28;20301;-65
2022/09/30 09:11:19;;;;;;;;;;;;;;;;;;5053449;28;20028;-65
2022/09/30 09:14:01;;;;;;;10.43;1.45;;;;;;;;;;5061117;28;20007;-65
2022/09/30 09:16:27;;;;;;;8.20;1.23;;;;;;;;;;5052429;28;20121;-64
2022/09/30 09:18:53;;;;;;;;;;;;;;;;;;5058406;28;20032;-65
2022/09/30 09:21:21;;;;;;;8.00;1.10;;;;;;;;;;5038617;28;19912;-63
2022/09/30 09:23:49;;;;;;;7.78;1.48;;;;;;;;;;5042057;28;20032;-65
2022/09/30 09:26:15;;;;;;;4.53;1.08;;;;;;;;;;5059214;28;20031;-64
2022/09/30 09:28:44;;;;;;;9.57;1.52;;;;;;;;;;5058544;28;20126;-64
2022/09/30 09:31:15;;;;;;;7.50;1.00;;;;;;;;;;5039549;28;20028;-63
2022/09/30 09:33:42;;;;;;;8.93;1.40;;;;;;;;;;5058171;28;20482;-64
2022/09/30 09:36:14;;;;;;;5.22;1.10;;;;;;;;;;5059789;28;20039;-64
2022/09/30 09:38:52;;;;;;;5.53;1.00;;;;;;;;;;5058531;28;20024;-63
2022/09/30 09:41:39;;;;;;;6.38;1.17;;;;;;;;;;5038491;28;20418;-64
2022/09/30 09:44:25;;;;;;;6.97;0.93;;;;;;;;;;5060615;28;20558;-65
2022/09/30 09:46:51;;;;;;;;;;;;;;;;;;5003712;28;20101;-63
2022/09/30 09:49:22;;;;;;;6.82;1.30;;;;;;;;;;5052693;28;19999;-63
2022/09/30 09:51:57;;;;;;;7.60;1.40;;;;;;;;;;5058980;28;20097;-63
2022/09/30 09:54:24;;;;;;;6.68;1.40;;;;;;;;;;5053080;28;20326;-64
2022/09/30 09:56:53;;;;;;;6.88;1.20;;;;;;;;;;5060879;28;20031;-64
2022/09/30 09:59:20;;;;;;;8.13;1.30;;;;;;;;;;5055405;28;20444;-65
2022/09/30 10:01:49;;;;;;;7.50;1.42;;;;;;;;;;5040672;28;20139;-64
2022/09/30 10:04:29;;;;;;;5.43;1.00;;;;;;;;;;5048300;28;20073;-64
2022/09/30 10:06:58;;;;;;;6.68;1.40;;;;;;;;;;5055331;28;20466;-64
2022/09/30 10:09:30;;;;;;;9.50;1.90;;;;;;;;;;5055965;28;20085;-64
2022/09/30 10:12:17;;;;;;;7.07;1.90;;;;;;;;;;5060195;28;20031;-64
2022/09/30 10:14:59;;;;;;;10.43;2.65;;;;;;;;;;5039986;28;20741;-64
2022/09/30 10:17:32;;;;;;;10.23;3.58;;;;;;;;;;5058119;28;20020;-64
2022/09/30 10:20:17;;;;;;;8.80;2.15;;;;;;;;;;5044431;28;20739;-65
2022/09/30 10:22:43;;;;;;;6.78;1.63;;;;;;;;;;5062813;28;20728;-65
2022/09/30 10:25:09;;;;;;;8.75;1.80;;;;;;;;;;5061397;28;20094;-65
2022/09/30 10:27:36;;;;;;;7.47;1.60;;;;;;;;;;5058486;28;20427;-65
2022/09/30 10:30:03;;;;;;;10.85;1.80;;;;;;;;;;5063024;28;20035;-65
2022/09/30 10:32:29;;;;;;;8.98;1.85;;;;;;;;;;5056010;28;20023;-64
2022/09/30 10:35:11;;;;;;;8.00;1.50;;;;;;;;;;5059844;28;20035;-64
2022/09/30 10:37:37;;;;;;;10.02;1.70;;;;;;;;;;5042503;28;20568;-64
2022/09/30 10:40:06;;;;;;;10.10;2.05;;;;;;;;;;5055483;28;20036;-64
2022/09/30 10:42:34;;;;;;;10.90;1.80;;;;;;;;;;5041732;28;20036;-64
2022/09/30 10:45:05;;;;;;;7.63;1.40;;;;;;;;;;5064739;28;20040;-64
2022/09/30 10:47:31;;;;;;;9.10;1.40;;;;;;;;;;5039390;28;20063;-64
2022/09/30 10:50:03;;;;;;;9.52;1.55;;;;;;;;;;5063031;28;20299;-64
2022/09/30 10:52:31;;;;;;;7.93;1.48;;;;;;;;;;5059515;28;20093;-64
2022/09/30 10:54:58;;;;;;;8.52;1.60;;;;;;;;;;5062239;28;20142;-64
2022/09/30 10:57:37;;;;;;;9.65;1.83;;;;;;;;;;5060692;28;20032;-64
2022/09/30 11:00:13;;;;;;;11.93;1.90;;;;;;;;;;5064655;28;20035;-64
2022/09/30 11:02:57;;;;;;;11.48;2.00;;;;;;;;;;5057504;28;20036;-64
2022/09/30 11:05:23;;;;;;;9.43;1.50;;;;;;;;;;5041610;28;20047;-65
2022/09/30 11:07:54;;;;;;;9.20;1.70;;;;;;;;;;5062847;28;20074;-64
2022/09/30 11:10:20;;;;;;;6.68;1.42;;;;;;;;;;5059263;28;20139;-64
2022/09/30 11:12:53;;;;;;;8.77;1.83;;;;;;;;;;5063379;28;20453;-64
2022/09/30 11:15:25;;;;;;;12.40;2.15;;;;;;;;;;5053541;28;20043;-64
2022/09/30 11:17:56;;;;;;;15.35;2.10;;;;;;;;;;5050252;28;20070;-65
2022/09/30 11:20:26;;;;;;;9.85;1.95;;;;;;;;;;5052581;28;20032;-65
2022/09/30 11:23:05;;;;;;;9.18;2.25;;;;;;;;;;5058085;28;20604;-64
2022/09/30 11:25:42;;;;;;;10.40;1.92;;;;;;;;;;5072411;28;20279;-64
2022/09/30 11:28:14;;;;;;;8.60;1.75;;;;;;;;;;5079612;27;20437;-65
2022/09/30 11:30:40;;;;;;;8.07;1.70;;;;;;;;;;5075930;27;20066;-64
2022/09/30 11:33:06;;;;;;;8.48;1.67;;;;;;;;;;5080996;27;20050;-64
2022/09/30 11:35:42;;;;;;;10.90;1.88;;;;;;;;;;5075359;28;20035;-65
2022/09/30 11:38:09;;;;;;;11.25;2.00;;;;;;;;;;5074561;28;20027;-64
2022/09/30 11:40:35;;;;;;;10.65;1.85;;;;;;;;;;5076281;28;20157;-64
2022/09/30 11:43:04;;;;;;;12.98;2.42;;;;;;;;;;5078803;28;20032;-64
2022/09/30 11:45:55;;;;;;;10.32;1.92;;;;;;;;;;5074437;27;20094;-65
2022/09/30 11:48:37;;;;;;;9.43;1.65;;;;;;;;;;5072110;28;20061;-65
2022/09/30 11:51:06;;;;;;;9.32;1.83;;;;;;;;;;5075962;27;20536;-65
2022/09/30 11:53:47;;;;;;;11.30;2.00;;;;;;;;;;5074358;27;20419;-65
2022/09/30 11:56:14;;;;;;;11.07;1.90;;;;;;;;;;5074896;28;20339;-64
2022/09/30 11:58:42;;;;;;;10.75;1.98;;;;;;;;;;5076150;27;20571;-64
2022/09/30 12:01:09;;;;;;;9.95;1.80;;;;;;;;;;5059260;28;20139;-64
2022/09/30 12:03:38;;;;;;;8.85;2.20;;;;;;;;;;5073044;28;20031;-64
2022/09/30 12:06:12;;;;;;;10.18;2.10;;;;;;;;;;5076054;28;20399;-64
2022/09/30 12:08:43;;;;;;;9.55;1.70;;;;;;;;;;5066894;28;20927;-65
2022/09/30 12:11:20;;;;;;;11.80;1.95;;;;;;;;;;5074896;27;20035;-65
2022/09/30 12:13:55;;;;;;;10.30;1.80;;;;;;;;;;5057473;28;20036;-64
2022/09/30 12:16:23;;;;;;;7.78;2.15;;;;;;;;;;5073102;28;20132;-64
2022/09/30 12:18:56;;;;;;;10.45;1.98;;;;;;;;;;5074087;28;20097;-64
2022/09/30 12:21:41;;;;;;;11.60;2.00;;;;;;;;;;5072386;27;20035;-64
2022/09/30 12:24:34;;;;;;;7.75;1.40;;;;;;;;;;5073609;28;20056;-65
2022/09/30 12:27:01;;;;;;;8.57;1.92;;;;;;;;;;5054027;28;20188;-65
2022/09/30 12:32:26;;;;;;;10.48;1.50;;;;;;;;;;5055206;28;20541;-64
2022/09/30 12:35:14;;;;;;;9.23;1.73;;;;;;;;;;5059050;28;20031;-64
2022/09/30 12:37:47;;;;;;;8.95;2.05;;;;;;;;;;5058012;28;20105;-64
2022/09/30 12:40:13;;;;;;;7.07;1.50;;;;;;;;;;5062130;28;20753;-64
2022/09/30 12:42:45;;;;;;;10.93;1.75;;;;;;;;;;5055357;28;20083;-66
2022/09/30 12:45:14;;;;;;;8.40;1.67;;;;;;;;;;5060244;28;20032;-65
2022/09/30 12:47:46;;;;;;;10.57;1.85;;;;;;;;;;5055919;28;20032;-65
2022/09/30 12:50:15;;;;;;;7.93;1.92;;;;;;;;;;5060820;28;20444;-65
2022/09/30 12:52:41;;;;;;;10.38;2.25;;;;;;;;;;5037500;28;20028;-65
2022/09/30 12:55:16;;;;;;;9.30;2.42;;;;;;;;;;5061685;28;20067;-65
2022/09/30 12:57:42;;;;;;;9.75;2.00;;;;;;;;;;5060303;28;20547;-66
2022/09/30 13:00:14;;;;;;;8.30;1.70;;;;;;;;;;5063050;28;20028;-64
2022/09/30 13:02:42;;;;;;;6.18;1.20;;;;;;;;;;5057748;28;20034;-64
2022/09/30 13:05:26;;;;;;;8.10;1.52;;;;;;;;;;5062216;28;20035;-64
2022/09/30 13:08:08;;;;;;;7.28;1.30;;;;;;;;;;5061202;28;20032;-63
2022/09/30 13:10:37;;;;;;;9.35;1.60;;;;;;;;;;5056800;28;20356;-64
2022/09/30 13:13:24;;;;;;;8.23;1.40;;;;;;;;;;5062091;28;20036;-66
2022/09/30 13:16:01;;;;;;;12.38;1.70;;;;;;;;;;5060596;28;20182;-64
2022/09/30 13:18:28;;;;;;;6.20;1.33;;;;;;;;;;5055513;28;20478;-64
2022/09/30 13:21:09;;;;;;;8.35;1.48;;;;;;;;;;5044608;28;20343;-64
2022/09/30 13:23:39;;;;;;;8.35;1.55;;;;;;;;;;5035755;28;20036;-65
2022/09/30 13:26:27;;;;;;;8.70;1.60;;;;;;;;;;5061890;28;20075;-65
2022/09/30 13:29:16;;;;;;;8.15;1.40;;;;;;;;;;5058617;28;20497;-64
2022/09/30 13:31:49;;;;;;;10.63;1.73;;;;;;;;;;5049394;28;20143;-64
2022/09/30 13:34:22;;;;;;;9.82;1.42;;;;;;;;;;5060671;28;20024;-64
2022/09/30 13:36:51;;;;;;;7.28;1.60;;;;;;;;;;5063134;28;20870;-64
2022/09/30 13:39:17;;;;;;;8.50;1.45;;;;;;;;;;5036768;28;20020;-66
2022/09/30 13:41:44;;;;;;;9.07;1.70;;;;;;;;;;5056052;28;20599;-66
2022/09/30 13:44:21;;;;;;;8.07;1.10;;;;;;;;;;5057126;28;20489;-66
2022/09/30 13:46:59;;;;;;;7.85;1.42;;;;;;;;;;5064005;28;20055;-64
2022/09/30 13:49:44;;;;;;;11.30;1.70;;;;;;;;;;5058258;28;20118;-66
2022/09/30 13:52:21;;;;;;;8.00;1.40;;;;;;;;;;5059844;28;20443;-63
2022/09/30 13:54:48;;;;;;;8.85;1.85;;;;;;;;;;5063493;28;20031;-65
2022/09/30 13:57:18;;;;;;;11.30;1.67;;;;;;;;;;5042278;28;20131;-65
2022/09/30 14:00:03;;;;;;;7.35;1.58;;;;;;;;;;5064401;28;20470;-65
2022/09/30 14:02:32;;;;;;;8.00;1.75;;;;;;;;;;5050816;28;20044;-66
2022/09/30 14:05:04;;;;;;;8.20;1.58;;;;;;;;;;5060824;28;20049;-65
2022/09/30 14:07:47;;;;;;;8.73;1.27;;;;;;;;;;5058066;28;20352;-65
2022/09/30 14:10:27;;;;;;;7.10;1.30;;;;;;;;;;5059146;28;20066;-65
2022/09/30 14:13:01;;;;;;;7.82;1.65;;;;;;;;;;5063571;28;20020;-65
2022/09/30 14:15:43;;;;;;;9.23;1.43;;;;;;;;;;5055154;28;20024;-65
2022/09/30 14:18:22;;;;;;;8.45;1.50;;;;;;;;;;5059873;28;20063;-65
2022/09/30 14:20:57;;;;;;;7.03;1.38;;;;;;;;;;5061618;28;20382;-65
2022/09/30 14:23:23;;;;;;;;;;;;;;;;;;5037583;28;20024;-65
2022/09/30 14:25:56;;;;;;;8.10;1.25;;;;;;;;;;5066964;28;20709;-66
2022/09/30 14:28:35;;;;;;;7.72;1.20;;;;;;;;;;5059828;28;20525;-65
2022/09/30 14:31:07;;;;;;;9.02;1.27;;;;;;;;;;5063786;28;20028;-65
2022/09/30 14:33:34;;;;;;;10.18;1.40;;;;;;;;;;5039141;28;21404;-66
2022/09/30 14:36:01;;;;;;;5.43;1.00;;;;;;;;;;5066763;28;20116;-65
2022/09/30 14:38:29;;;;;;;8.65;1.58;;;;;;;;;;5062769;28;20300;-65
2022/09/30 14:40:58;;;;;;;8.82;1.48;;;;;;;;;;5063668;28;20478;-65
2022/09/30 14:43:32;;;;;;;8.43;1.45;;;;;;;;;;5059664;28;20553;-65
2022/09/30 14:46:01;;;;;;;9.23;1.33;;;;;;;;;;5063628;28;20061;-65
2022/09/30 14:48:34;;;;;;;7.20;1.20;;;;;;;;;;5061184;28;20656;-65
2022/09/30 14:51:09;;;;;;;6.78;1.30;;;;;;;;;;5063970;28;20024;-65
2022/09/30 14:53:36;;;;;;;8.80;1.55;;;;;;;;;;5061778;28;20024;-65
2022/09/30 14:56:03;;;;;;;6.90;1.27;;;;;;;;;;5047491;28;20123;-65
2022/09/30 14:58:41;;;;;;;9.27;1.67;;;;;;;;;;5045789;28;20530;-65
2022/09/30 15:01:10;;;;;;;6.90;1.42;;;;;;;;;;5065021;28;20118;-65
2022/09/30 15:03:39;;;;;;;8.10;1.50;;;;;;;;;;5066023;28;20389;-65
2022/09/30 15:06:06;;;;;;;6.50;1.20;;;;;;;;;;5067606;28;20830;-65
2022/09/30 15:08:32;;;;;;;5.15;1.15;;;;;;;;;;5065122;28;20580;-65
2022/09/30 15:10:58;;;;;;;6.95;1.20;;;;;;;;;;5065670;28;20355;-65